Empire State — WDE4431 — position and weather

sailwx.info

Track history (hours):
 
Tides and Currents Weather Stations Pressure Air Temp Water Temp Dewpoint Dewpoint Depression Visibility Wind Speed Wind Dir Waves Ship Positions

Empire State

Owner: Crowley Petroleum Services, Jacksonville, FL. More information available from US FCC via Universal Licensing System and Coast Guard Vessel Documentation Center.

Last reported at 2015-May-27 19:33 UTC. Time now 2015-May-27 19:59 UTC.
Position N 47°34' W 122°32'.

Length 183 m; draft 8.3 m.

Type: Military. MMSI: 367353080.

Date/timePositionNaut miles runAvg speedWind from/ knotsBaromVisibWave heightAir tempDewpointWater temp
2015-May-27 19:33N 47°34' W 122°32'0 0.1
2015-May-27 18:33N 47°34' W 122°32'0 0.0
2015-May-27 15:15N 47°34' W 122°32'0 0.0
2015-May-27 14:30N 47°34' W 122°32'0 0.0
2015-May-27 13:30N 47°34' W 122°32'0 0.0
2015-May-27 12:33N 47°34' W 122°32'0 0.0
2015-May-27 11:15N 47°34' W 122°32'0 0.0
2015-May-27 10:33N 47°34' W 122°32'0 0.0
2015-May-27 10:06N 47°34' W 122°32'0 0.0
2015-May-27 09:33N 47°34' W 122°32'0 0.0
2015-May-27 08:33N 47°34' W 122°32'0 0.0
2015-May-27 04:30N 47°34' W 122°32'0 0.0
2015-May-27 04:16N 47°34' W 122°32'1 2.0
2015-May-27 03:33N 47°34' W 122°30'1 6.7
2015-May-27 03:21N 47°35' W 122°28'911.2
2015-May-27 02:33N 47°43' W 122°28'112.1
2015-May-27 02:31N 47°44' W 122°27'1111.5
2015-May-27 01:33N 47°55' W 122°30'110.7
2015-May-27 01:29N 47°55' W 122°30'1010.6
2015-May-27 00:33N 48°03' W 122°39'10 9.8
2015-May-26 23:33N 48°11' W 122°49'1110.8
2015-May-26 22:31N 48°12' W 123°05'212.2
2015-May-26 22:23N 48°12' W 123°08'1012.3
2015-May-26 21:33N 48°10' W 123°23'1010.4
2015-May-26 20:33N 48°13' W 123°38'1111.3
2015-May-26 19:33N 48°13' W 123°55'1211.5
2015-May-26 18:33N 48°18' W 124°11'1313.5
2015-May-26 17:33N 48°24' W 124°29'1413.8
2015-May-26 16:33N 48°28' W 124°48'714.6
2015-May-26 16:05N 48°27' W 124°59'713.7
2015-May-26 15:33N 48°22' W 125°06'1614.6
2015-May-26 14:28N 48°08' W 125°18'10312.9
2015-May-26 06:30N 46°27' W 125°45'1313.4
2015-May-26 05:31N 46°14' W 125°45'1313.3
2015-May-26 04:33N 46°01' W 125°45'1413.5
2015-May-26 03:33N 45°48' W 125°45'1413.5
2015-May-26 02:33N 45°34' W 125°45'1313.3
2015-May-26 01:33N 45°21' W 125°45'1313.1
2015-May-26 00:33N 45°08' W 125°45'1313.0
2015-May-25 23:33N 44°55' W 125°45'1413.3
2015-May-25 22:28N 44°40' W 125°45'1213.2
2015-May-25 21:33N 44°28' W 125°45'1313.1
2015-May-25 20:33N 44°15' W 125°45'40411.8
2015-May-24 10:19N 37°36' W 124°22'5511.6
2015-May-24 05:33N 36°45' W 123°55'3812.6
2015-May-24 02:33N 36°11' W 123°37'1312.6
2015-May-24 01:33N 35°59' W 123°31'1313.1
2015-May-24 00:33N 35°47' W 123°24'1313.0
2015-May-23 23:32N 35°35' W 123°18'1312.7
2015-May-23 22:33N 35°23' W 123°12'1312.9
2015-May-23 21:33N 35°11' W 123°06'1313.1
2015-May-23 20:33N 34°59' W 122°59'1312.9
2015-May-23 19:33N 34°50' W 122°49'1313.0
2015-May-23 18:33N 34°41' W 122°38'1313.3
2015-May-23 17:33N 34°31' W 122°27'1313.3
2015-May-23 16:33N 34°21' W 122°16'23411.7
2015-May-22 20:30N 32°32' W 118°07'1313.6
2015-May-22 19:33N 32°37' W 117°54'1413.5
2015-May-22 18:33N 32°37' W 117°37'1413.7
2015-May-22 17:33N 32°37' W 117°21'8 8.1
2015-May-22 16:33N 32°42' W 117°14'0 0.3
2015-May-22 15:33N 32°42' W 117°14'0 0.0
2015-May-22 14:33N 32°42' W 117°14'0 0.0
2015-May-22 13:33N 32°42' W 117°14'0 0.0
2015-May-22 12:33N 32°42' W 117°14'0 0.0
2015-May-22 11:33N 32°42' W 117°14'0 0.0
2015-May-22 10:33N 32°42' W 117°14'0 0.0
2015-May-22 09:33N 32°42' W 117°14'0 0.0
2015-May-22 08:33N 32°42' W 117°14'0 0.0
2015-May-22 07:33N 32°42' W 117°14'0 0.0
2015-May-22 06:33N 32°42' W 117°14'0 0.0
2015-May-22 05:33N 32°42' W 117°14'0 0.0
2015-May-22 04:33N 32°42' W 117°14'0 0.0
2015-May-22 03:33N 32°42' W 117°14'0 0.0
2015-May-22 02:33N 32°42' W 117°14'0 0.0
2015-May-22 01:33N 32°42' W 117°14'0 0.0
2015-May-22 00:33N 32°42' W 117°14'0 0.0
2015-May-21 23:33N 32°42' W 117°14'0 0.0
2015-May-21 22:33N 32°42' W 117°14'0 0.0
2015-May-21 21:33N 32°42' W 117°14'0 0.0
2015-May-21 20:33N 32°42' W 117°14'0 0.0
2015-May-21 19:33N 32°42' W 117°14'0 0.0
2015-May-21 18:33N 32°42' W 117°14'0 0.0
2015-May-21 17:33N 32°42' W 117°14'0 0.0
2015-May-21 16:33N 32°42' W 117°14'0 0.0
2015-May-21 15:33N 32°42' W 117°14'0 0.0
2015-May-21 14:33N 32°42' W 117°14'0 0.0
2015-May-21 13:33N 32°42' W 117°14'0 0.0
2015-May-21 12:33N 32°42' W 117°14'0 0.0
2015-May-21 11:33N 32°42' W 117°14'0 0.0
2015-May-21 10:33N 32°42' W 117°14'0 0.0
2015-May-21 09:33N 32°42' W 117°14'0 0.0
2015-May-21 08:33N 32°42' W 117°14'0 0.0
2015-May-21 07:33N 32°42' W 117°14'0 0.0
2015-May-21 06:33N 32°42' W 117°14'0 0.0
2015-May-21 05:33N 32°42' W 117°14'0 0.0
2015-May-21 04:33N 32°42' W 117°14'0 0.0
2015-May-21 03:33N 32°42' W 117°14'0 0.0
2015-May-21 02:33N 32°42' W 117°14'0 0.0
2015-May-21 01:33N 32°42' W 117°14'0 0.0
2015-May-21 00:33N 32°42' W 117°14'0 0.0
2015-May-20 23:33N 32°42' W 117°14'0 0.0
2015-May-20 22:33N 32°42' W 117°14'0 0.0
2015-May-20 21:33N 32°42' W 117°14'0 0.0
2015-May-20 20:33N 32°42' W 117°14'0 0.0
2015-May-20 19:33N 32°42' W 117°14'0 0.0
2015-May-20 18:33N 32°42' W 117°14'0 0.0
2015-May-20 17:33N 32°42' W 117°14'4 3.8
2015-May-20 16:33N 32°38' W 117°14'5 4.5
2015-May-20 15:33N 32°37' W 117°19'9 9.1
2015-May-20 14:33N 32°37' W 117°29'9 9.0
2015-May-20 13:33N 32°38' W 117°40'9 9.0
2015-May-20 12:33N 32°38' W 117°51'9 8.9
2015-May-20 11:33N 32°35' W 118°01'47 9.2
2015-May-20 06:27N 32°17' W 118°52'11 9.2
2015-May-20 05:16N 32°12' W 119°04'11 6.4
2015-May-20 03:31N 32°13' W 119°17'6 5.5
2015-May-20 02:28N 32°14' W 119°24'203 9.2
2015-May-19 04:26N 34°29' W 122°25'1110.7
2015-May-19 03:25N 34°37' W 122°34'910.7
2015-May-19 02:31N 34°44' W 122°42'1110.9
2015-May-19 01:33N 34°52' W 122°51'1110.9
2015-May-19 00:33N 34°60' W 122°59'1110.8
2015-May-18 23:33N 35°10' W 123°03'1211.1
2015-May-18 22:30N 35°22' W 123°05'1410.6
2015-May-18 21:13N 35°35' W 123°09'913.2
2015-May-18 20:32N 35°44' W 123°12'1414.4
2015-May-18 19:33N 35°58' W 123°16'1514.4
2015-May-18 18:32N 36°12' W 123°20'2914.7
2015-May-18 16:33N 36°40' W 123°27'1514.8
2015-May-18 15:33N 36°55' W 123°32'1814.3
2015-May-18 14:15N 37°11' W 123°21'1014.5
2015-May-18 13:33N 37°20' W 123°14'1511.6
2015-May-18 12:14N 37°33' W 123°05'710.2
2015-May-18 11:33N 37°37' W 122°58'1010.4
2015-May-18 10:33N 37°43' W 122°46'1110.6
2015-May-18 09:33N 37°47' W 122°34'10 9.5
2015-May-18 08:33N 37°55' W 122°27'9 8.7
2015-May-18 07:33N 38°02' W 122°21'6 5.6
2015-May-18 06:33N 38°04' W 122°14'0 0.2
2015-May-18 05:32N 38°04' W 122°15'0 0.0
2015-May-18 04:32N 38°04' W 122°15'  
Track history (hours):
 
Tides and Currents Weather Stations Pressure Air Temp Water Temp Dewpoint Dewpoint Depression Visibility Wind Speed Wind Dir Waves Ship Positions

Empire State

Owner: Crowley Petroleum Services, Jacksonville, FL. More information available from US FCC via Universal Licensing System and Coast Guard Vessel Documentation Center.

Last reported at 2015-May-27 19:33 UTC. Time now 2015-May-27 19:59 UTC.
Position N 47°34' W 122°32'.

Length 183 m; draft 8.3 m.

Type: Military. MMSI: 367353080.

Date/timePositionNaut miles runAvg speedWind from/ knotsBaromVisibWave heightAir tempDewpointWater temp
2015-May-27 19:33N 47°34' W 122°32'0 0.1
2015-May-27 18:33N 47°34' W 122°32'0 0.0
2015-May-27 15:15N 47°34' W 122°32'0 0.0
2015-May-27 14:30N 47°34' W 122°32'0 0.0
2015-May-27 13:30N 47°34' W 122°32'0 0.0
2015-May-27 12:33N 47°34' W 122°32'0 0.0
2015-May-27 11:15N 47°34' W 122°32'0 0.0
2015-May-27 10:33N 47°34' W 122°32'0 0.0
2015-May-27 10:06N 47°34' W 122°32'0 0.0
2015-May-27 09:33N 47°34' W 122°32'0 0.0
2015-May-27 08:33N 47°34' W 122°32'0 0.0
2015-May-27 04:30N 47°34' W 122°32'0 0.0
2015-May-27 04:16N 47°34' W 122°32'1 2.0
2015-May-27 03:33N 47°34' W 122°30'1 6.7
2015-May-27 03:21N 47°35' W 122°28'911.2
2015-May-27 02:33N 47°43' W 122°28'112.1
2015-May-27 02:31N 47°44' W 122°27'1111.5
2015-May-27 01:33N 47°55' W 122°30'110.7
2015-May-27 01:29N 47°55' W 122°30'1010.6
2015-May-27 00:33N 48°03' W 122°39'10 9.8
2015-May-26 23:33N 48°11' W 122°49'1110.8
2015-May-26 22:31N 48°12' W 123°05'212.2
2015-May-26 22:23N 48°12' W 123°08'1012.3
2015-May-26 21:33N 48°10' W 123°23'1010.4
2015-May-26 20:33N 48°13' W 123°38'1111.3
2015-May-26 19:33N 48°13' W 123°55'1211.5
2015-May-26 18:33N 48°18' W 124°11'1313.5
2015-May-26 17:33N 48°24' W 124°29'1413.8
2015-May-26 16:33N 48°28' W 124°48'714.6
2015-May-26 16:05N 48°27' W 124°59'713.7
2015-May-26 15:33N 48°22' W 125°06'1614.6
2015-May-26 14:28N 48°08' W 125°18'10312.9
2015-May-26 06:30N 46°27' W 125°45'1313.4
2015-May-26 05:31N 46°14' W 125°45'1313.3
2015-May-26 04:33N 46°01' W 125°45'1413.5
2015-May-26 03:33N 45°48' W 125°45'1413.5
2015-May-26 02:33N 45°34' W 125°45'1313.3
2015-May-26 01:33N 45°21' W 125°45'1313.1
2015-May-26 00:33N 45°08' W 125°45'1313.0
2015-May-25 23:33N 44°55' W 125°45'1413.3
2015-May-25 22:28N 44°40' W 125°45'1213.2
2015-May-25 21:33N 44°28' W 125°45'1313.1
2015-May-25 20:33N 44°15' W 125°45'40411.8
2015-May-24 10:19N 37°36' W 124°22'5511.6
2015-May-24 05:33N 36°45' W 123°55'3812.6
2015-May-24 02:33N 36°11' W 123°37'1312.6
2015-May-24 01:33N 35°59' W 123°31'1313.1
2015-May-24 00:33N 35°47' W 123°24'1313.0
2015-May-23 23:32N 35°35' W 123°18'1312.7
2015-May-23 22:33N 35°23' W 123°12'1312.9
2015-May-23 21:33N 35°11' W 123°06'1313.1
2015-May-23 20:33N 34°59' W 122°59'1312.9
2015-May-23 19:33N 34°50' W 122°49'1313.0
2015-May-23 18:33N 34°41' W 122°38'1313.3
2015-May-23 17:33N 34°31' W 122°27'1313.3
2015-May-23 16:33N 34°21' W 122°16'23411.7
2015-May-22 20:30N 32°32' W 118°07'1313.6
2015-May-22 19:33N 32°37' W 117°54'1413.5
2015-May-22 18:33N 32°37' W 117°37'1413.7
2015-May-22 17:33N 32°37' W 117°21'8 8.1
2015-May-22 16:33N 32°42' W 117°14'0 0.3
2015-May-22 15:33N 32°42' W 117°14'0 0.0
2015-May-22 14:33N 32°42' W 117°14'0 0.0
2015-May-22 13:33N 32°42' W 117°14'0 0.0
2015-May-22 12:33N 32°42' W 117°14'0 0.0
2015-May-22 11:33N 32°42' W 117°14'0 0.0
2015-May-22 10:33N 32°42' W 117°14'0 0.0
2015-May-22 09:33N 32°42' W 117°14'0 0.0
2015-May-22 08:33N 32°42' W 117°14'0 0.0
2015-May-22 07:33N 32°42' W 117°14'0 0.0
2015-May-22 06:33N 32°42' W 117°14'0 0.0
2015-May-22 05:33N 32°42' W 117°14'0 0.0
2015-May-22 04:33N 32°42' W 117°14'0 0.0
2015-May-22 03:33N 32°42' W 117°14'0 0.0
2015-May-22 02:33N 32°42' W 117°14'0 0.0
2015-May-22 01:33N 32°42' W 117°14'0 0.0
2015-May-22 00:33N 32°42' W 117°14'0 0.0
2015-May-21 23:33N 32°42' W 117°14'0 0.0
2015-May-21 22:33N 32°42' W 117°14'0 0.0
2015-May-21 21:33N 32°42' W 117°14'0 0.0
2015-May-21 20:33N 32°42' W 117°14'0 0.0
2015-May-21 19:33N 32°42' W 117°14'0 0.0
2015-May-21 18:33N 32°42' W 117°14'0 0.0
2015-May-21 17:33N 32°42' W 117°14'0 0.0
2015-May-21 16:33N 32°42' W 117°14'0 0.0
2015-May-21 15:33N 32°42' W 117°14'0 0.0
2015-May-21 14:33N 32°42' W 117°14'0 0.0
2015-May-21 13:33N 32°42' W 117°14'0 0.0
2015-May-21 12:33N 32°42' W 117°14'0 0.0
2015-May-21 11:33N 32°42' W 117°14'0 0.0
2015-May-21 10:33N 32°42' W 117°14'0 0.0
2015-May-21 09:33N 32°42' W 117°14'0 0.0
2015-May-21 08:33N 32°42' W 117°14'0 0.0
2015-May-21 07:33N 32°42' W 117°14'0 0.0
2015-May-21 06:33N 32°42' W 117°14'0 0.0
2015-May-21 05:33N 32°42' W 117°14'0 0.0
2015-May-21 04:33N 32°42' W 117°14'0 0.0
2015-May-21 03:33N 32°42' W 117°14'0 0.0
2015-May-21 02:33N 32°42' W 117°14'0 0.0
2015-May-21 01:33N 32°42' W 117°14'0 0.0
2015-May-21 00:33N 32°42' W 117°14'0 0.0
2015-May-20 23:33N 32°42' W 117°14'0 0.0
2015-May-20 22:33N 32°42' W 117°14'0 0.0
2015-May-20 21:33N 32°42' W 117°14'0 0.0
2015-May-20 20:33N 32°42' W 117°14'0 0.0
2015-May-20 19:33N 32°42' W 117°14'0 0.0
2015-May-20 18:33N 32°42' W 117°14'0 0.0
2015-May-20 17:33N 32°42' W 117°14'4 3.8
2015-May-20 16:33N 32°38' W 117°14'5 4.5
2015-May-20 15:33N 32°37' W 117°19'9 9.1
2015-May-20 14:33N 32°37' W 117°29'9 9.0
2015-May-20 13:33N 32°38' W 117°40'9 9.0
2015-May-20 12:33N 32°38' W 117°51'9 8.9
2015-May-20 11:33N 32°35' W 118°01'47 9.2
2015-May-20 06:27N 32°17' W 118°52'11 9.2
2015-May-20 05:16N 32°12' W 119°04'11 6.4
2015-May-20 03:31N 32°13' W 119°17'6 5.5
2015-May-20 02:28N 32°14' W 119°24'203 9.2
2015-May-19 04:26N 34°29' W 122°25'1110.7
2015-May-19 03:25N 34°37' W 122°34'910.7
2015-May-19 02:31N 34°44' W 122°42'1110.9
2015-May-19 01:33N 34°52' W 122°51'1110.9
2015-May-19 00:33N 34°60' W 122°59'1110.8
2015-May-18 23:33N 35°10' W 123°03'1211.1
2015-May-18 22:30N 35°22' W 123°05'1410.6
2015-May-18 21:13N 35°35' W 123°09'913.2
2015-May-18 20:32N 35°44' W 123°12'1414.4
2015-May-18 19:33N 35°58' W 123°16'1514.4
2015-May-18 18:32N 36°12' W 123°20'2914.7
2015-May-18 16:33N 36°40' W 123°27'1514.8
2015-May-18 15:33N 36°55' W 123°32'1814.3
2015-May-18 14:15N 37°11' W 123°21'1014.5
2015-May-18 13:33N 37°20' W 123°14'1511.6
2015-May-18 12:14N 37°33' W 123°05'710.2
2015-May-18 11:33N 37°37' W 122°58'1010.4
2015-May-18 10:33N 37°43' W 122°46'1110.6
2015-May-18 09:33N 37°47' W 122°34'10 9.5
2015-May-18 08:33N 37°55' W 122°27'9 8.7
2015-May-18 07:33N 38°02' W 122°21'6 5.6
2015-May-18 06:33N 38°04' W 122°14'0 0.2
2015-May-18 05:32N 38°04' W 122°15'0 0.0
2015-May-18 04:32N 38°04' W 122°15'  

Dump ship's entire track history